Аэропорт: Одесса. Одесса

ICAO: UKOO

METAR:
2020-06-01 01:30:00
UKOO 010130Z 26002MPS CAVOK 10/08 Q1007 R34/090060 NOSIG
METAR:
2020-05-31 23:03:00
TAF UKOO 312303Z 0100/0124 27003MPS 2100 -SHRA BR BKN007 SCT015CB BECMG 0106/0107 27006G12MPS 6000 NSW PROB40 TEMPO 0109/0118 VRB09G17MPS 1000 TSRAGR SQ BKN003 BKN013CB BECMG 0118/0119 33003MPS